Time;durP1;ratioP1;P1;durP2;ratioP2;P2;SDS_P1;SDS_P2;PMS_P1;PMS_P2;Temp;Humidity;BMP_temperature;BMP_pressure;BME280_temperature;BME280_humidity;BME280_pressure;Samples;Min_cycle;Max_cycle;Signal;HPM_P1;HPM_P2
2023/11/22 00:03:01;;;;;;;10.10;6.57;;;5.80;90.40;;;;;;9162450;19;20023;-70
2023/11/22 00:06:10;;;;;;;12.93;7.28;;;5.80;90.60;;;;;;9160845;19;20352;-69
2023/11/22 00:09:22;;;;;;;11.52;6.65;;;5.80;90.70;;;;;;9160944;19;20357;-72
2023/11/22 00:12:27;;;;;;;12.30;7.60;;;5.80;90.70;;;;;;9160103;19;20018;-72
2023/11/22 00:15:36;;;;;;;11.15;6.90;;;5.80;91.20;;;;;;9158849;19;20015;-69
2023/11/22 00:18:41;;;;;;;14.05;7.65;;;6.00;92.10;;;;;;9160645;19;20018;-71
2023/11/22 00:21:51;;;;;;;11.75;6.57;;;5.70;92.30;;;;;;9160315;19;20015;-70
2023/11/22 00:24:56;;;;;;;15.68;7.50;;;5.80;92.10;;;;;;9159223;19;20026;-72
2023/11/22 00:28:05;;;;;;;12.45;6.70;;;5.70;91.50;;;;;;9157808;19;20049;-71
2023/11/22 00:31:11;;;;;;;13.20;6.80;;;5.70;91.70;;;;;;9160396;19;20022;-70
2023/11/22 00:34:18;;;;;;;16.55;7.03;;;5.70;91.60;;;;;;9158968;19;20019;-70
2023/11/22 00:37:28;;;;;;;12.98;7.18;;;5.60;91.40;;;;;;9157822;19;20550;-72
2023/11/22 00:40:35;;;;;;;9.95;5.75;;;5.60;91.60;;;;;;9158998;19;20018;-71
2023/11/22 00:43:41;;;;;;;12.13;6.78;;;5.60;91.70;;;;;;9151696;19;20023;-69
2023/11/22 00:46:48;;;;;;;14.27;6.70;;;5.60;91.60;;;;;;9159592;19;20014;-70
2023/11/22 00:49:53;;;;;;;15.82;6.47;;;5.70;91.60;;;;;;9160913;19;20114;-71
2023/11/22 00:53:03;;;;;;;13.20;6.05;;;5.60;91.60;;;;;;9158605;19;20029;-75
2023/11/22 00:56:09;;;;;;;12.02;6.65;;;5.60;91.90;;;;;;9157728;19;20080;-72
2023/11/22 00:59:17;;;;;;;13.38;7.35;;;5.60;92.10;;;;;;9158331;19;20694;-74
2023/11/22 01:02:23;;;;;;;12.15;6.88;;;5.50;92.60;;;;;;9157140;19;20023;-73
2023/11/22 01:05:30;;;;;;;18.27;6.30;;;5.20;92.40;;;;;;9157988;19;20018;-74
2023/11/22 01:08:38;;;;;;;13.75;6.55;;;5.70;90.60;;;;;;9156476;19;20481;-75
2023/11/22 01:11:47;;;;;;;10.75;6.80;;;5.30;89.70;;;;;;9159416;19;20015;-73
2023/11/22 01:14:52;;;;;;;9.32;5.78;;;5.30;89.70;;;;;;9160028;19;20037;-73
2023/11/22 01:17:59;;;;;;;12.32;6.13;;;5.30;89.70;;;;;;9168303;19;20022;-74
2023/11/22 01:21:06;;;;;;;12.50;6.30;;;5.20;89.70;;;;;;9166262;19;20022;-72
2023/11/22 01:24:16;;;;;;;13.10;6.53;;;5.20;89.70;;;;;;9168902;19;20015;-73
2023/11/22 01:27:21;;;;;;;16.42;6.97;;;5.20;89.70;;;;;;9165599;19;20014;-74
2023/11/22 01:30:30;;;;;;;15.27;6.43;;;5.10;89.70;;;;;;9164882;19;20017;-73
2023/11/22 01:33:36;;;;;;;10.23;6.55;;;5.20;89.70;;;;;;9167505;19;20026;-72
2023/11/22 01:36:46;;;;;;;12.27;6.78;;;5.10;89.70;;;;;;9166369;19;20365;-73
2023/11/22 01:39:54;;;;;;;9.82;6.05;;;5.10;89.80;;;;;;9163469;19;20485;-72
2023/11/22 01:43:02;;;;;;;11.82;6.65;;;5.10;89.80;;;;;;9155778;19;20503;-73
2023/11/22 01:46:08;;;;;;;11.68;5.90;;;5.10;89.80;;;;;;9166206;19;20739;-70
2023/11/22 01:49:16;;;;;;;15.30;6.25;;;5.10;89.90;;;;;;9162994;19;20015;-73
2023/11/22 01:52:21;;;;;;;13.68;6.13;;;5.00;89.80;;;;;;9167899;19;20044;-72
2023/11/22 01:55:32;;;;;;;10.35;6.00;;;5.00;89.70;;;;;;9165903;19;20463;-73
2023/11/22 01:58:39;;;;;;;11.18;6.13;;;5.00;89.80;;;;;;9164349;19;20320;-72
2023/11/22 02:01:46;;;;;;;9.90;5.72;;;4.90;89.70;;;;;;9164549;19;20018;-72
2023/11/22 02:04:51;;;;;;;11.73;6.00;;;4.90;89.70;;;;;;9166656;19;20372;-71
2023/11/22 02:08:00;;;;;;;14.82;6.20;;;4.90;89.80;;;;;;9163131;19;20018;-72
2023/11/22 02:11:08;;;;;;;13.93;5.40;;;4.90;89.80;;;;;;9164722;19;20015;-74
2023/11/22 02:14:16;;;;;;;11.93;5.65;;;4.90;90.00;;;;;;9163280;19;20010;-73
2023/11/22 02:17:22;;;;;;;14.88;7.22;;;4.80;89.90;;;;;;9162327;19;20018;-73
2023/11/22 02:20:30;;;;;;;16.15;6.75;;;4.80;90.10;;;;;;9165532;19;20010;-73
2023/11/22 02:23:38;;;;;;;11.35;5.57;;;4.70;90.40;;;;;;9164939;19;20038;-73
2023/11/22 02:26:48;;;;;;;14.82;6.43;;;4.80;90.20;;;;;;9164054;19;20022;-73
2023/11/22 02:29:54;;;;;;;17.15;5.82;;;4.70;90.00;;;;;;9162996;19;20030;-73
2023/11/22 02:33:01;;;;;;;14.48;6.53;;;4.80;90.10;;;;;;9162463;19;20017;-74
2023/11/22 02:36:08;;;;;;;11.10;5.22;;;4.70;90.40;;;;;;9162257;19;20129;-72
2023/11/22 02:39:18;;;;;;;10.77;6.07;;;4.70;90.70;;;;;;9163295;19;20014;-70
2023/11/22 02:42:24;;;;;;;12.73;6.78;;;4.70;90.60;;;;;;9163284;19;20467;-73
2023/11/22 02:45:31;;;;;;;10.27;5.82;;;4.60;90.80;;;;;;9161209;19;20018;-72
2023/11/22 02:48:37;;;;;;;13.27;6.53;;;4.60;90.80;;;;;;9163185;19;20023;-72
2023/11/22 02:51:46;;;;;;;15.23;6.72;;;4.60;91.30;;;;;;9164823;19;20026;-73
2023/11/22 02:54:54;;;;;;;13.50;6.82;;;4.60;91.40;;;;;;9164128;19;20026;-73
2023/11/22 02:58:02;;;;;;;11.20;5.90;;;4.60;91.10;;;;;;9163663;19;20015;-72
2023/11/22 03:01:07;;;;;;;11.60;6.38;;;4.50;91.00;;;;;;9164668;19;20019;-72
2023/11/22 03:04:15;;;;;;;16.10;6.95;;;4.50;90.60;;;;;;9162927;19;20015;-72
2023/11/22 03:07:20;;;;;;;15.70;6.47;;;4.50;91.00;;;;;;9159867;19;20078;-72
2023/11/22 03:10:31;;;;;;;12.27;6.35;;;4.50;91.00;;;;;;9162449;19;20018;-71
2023/11/22 03:13:37;;;;;;;12.63;6.45;;;4.50;91.60;;;;;;9164130;19;20021;-70
2023/11/22 03:16:45;;;;;;;14.43;6.90;;;4.40;90.80;;;;;;9160805;19;20006;-72
2023/11/22 03:19:51;;;;;;;12.43;6.18;;;4.40;91.00;;;;;;9163988;19;20015;-72
2023/11/22 03:22:59;;;;;;;14.70;7.03;;;4.50;91.10;;;;;;9162619;19;20247;-74
2023/11/22 03:26:09;;;;;;;10.95;6.28;;;4.40;91.10;;;;;;9161629;19;20019;-72
2023/11/22 03:29:18;;;;;;;16.13;6.07;;;4.40;91.10;;;;;;9156037;19;20015;-74
2023/11/22 03:32:24;;;;;;;13.18;6.72;;;4.40;91.30;;;;;;9160449;19;20506;-73
2023/11/22 03:35:31;;;;;;;10.57;6.18;;;4.40;91.90;;;;;;9159133;19;20010;-71
2023/11/22 03:38:37;;;;;;;13.13;6.25;;;4.30;92.10;;;;;;9158209;19;20022;-73
2023/11/22 03:41:47;;;;;;;17.92;6.85;;;4.20;90.70;;;;;;9158844;19;20019;-72
2023/11/22 03:44:54;;;;;;;16.58;7.10;;;4.20;90.70;;;;;;9157510;19;20018;-72
2023/11/22 03:48:01;;;;;;;15.07;6.95;;;4.30;91.30;;;;;;9160596;19;20018;-70
2023/11/22 03:51:06;;;;;;;15.35;7.13;;;4.30;92.60;;;;;;9161525;19;20029;-72
2023/11/22 03:54:14;;;;;;;13.98;7.50;;;4.30;91.40;;;;;;9159729;19;20029;-71
2023/11/22 03:57:22;;;;;;;15.05;6.80;;;4.20;91.50;;;;;;9161058;19;20018;-72
2023/11/22 04:00:29;;;;;;;17.17;7.35;;;4.30;91.90;;;;;;9163241;19;20022;-73
2023/11/22 04:03:35;;;;;;;15.55;7.47;;;4.20;93.00;;;;;;9161719;19;20025;-72
2023/11/22 04:06:42;;;;;;;15.15;7.75;;;4.20;91.40;;;;;;9161478;19;20021;-74
2023/11/22 04:09:47;;;;;;;16.55;7.28;;;4.10;91.40;;;;;;9159383;19;20015;-72
2023/11/22 04:12:57;;;;;;;17.27;8.05;;;4.10;91.60;;;;;;9160537;19;20022;-73
2023/11/22 04:16:03;;;;;;;19.45;7.55;;;4.10;91.60;;;;;;9162308;19;20023;-70
2023/11/22 04:19:11;;;;;;;22.67;7.85;;;4.10;92.00;;;;;;9158310;19;20475;-72
2023/11/22 04:22:16;;;;;;;12.95;6.72;;;4.10;93.40;;;;;;9161834;19;20014;-71
2023/11/22 04:25:23;;;;;;;15.40;7.88;;;4.40;92.40;;;;;;9162565;19;20018;-71
2023/11/22 04:28:32;;;;;;;13.45;7.45;;;4.00;93.90;;;;;;9158877;19;20015;-72
2023/11/22 04:31:39;;;;;;;11.35;6.70;;;4.00;92.20;;;;;;9161379;19;20018;-73
2023/11/22 04:34:44;;;;;;;15.38;7.47;;;4.00;93.30;;;;;;9160385;19;20014;-74
2023/11/22 04:37:52;;;;;;;13.20;7.10;;;3.90;90.20;;;;;;9157158;19;20010;-71
2023/11/22 04:40:57;;;;;;;17.08;7.78;;;3.90;90.60;;;;;;9157370;19;20309;-74
2023/11/22 04:44:07;;;;;;;13.15;6.68;;;7.30;91.60;;;;;;9155204;19;20015;-73
2023/11/22 04:47:12;;;;;;;11.40;6.45;;;4.00;90.60;;;;;;9159422;19;20476;-72
2023/11/22 04:50:20;;;;;;;13.75;6.95;;;3.90;90.20;;;;;;9160415;19;20018;-72
2023/11/22 04:53:25;;;;;;;13.75;7.68;;;3.90;90.70;;;;;;9169047;19;20037;-72
2023/11/22 04:56:34;;;;;;;16.63;8.07;;;4.00;91.60;;;;;;9168474;19;20391;-71
2023/11/22 04:59:42;;;;;;;12.63;6.57;;;4.00;90.80;;;;;;9168796;19;20018;-72
2023/11/22 05:02:49;;;;;;;14.77;7.60;;;3.90;91.20;;;;;;9166787;19;20476;-72
2023/11/22 05:05:55;;;;;;;19.02;8.07;;;3.80;90.10;;;;;;9168205;19;20021;-72
2023/11/22 05:09:02;;;;;;;13.48;6.82;;;3.80;90.10;;;;;;9167239;19;20018;-72
2023/11/22 05:12:09;;;;;;;13.05;7.03;;;3.70;89.90;;;;;;9169432;19;20094;-71
2023/11/22 05:15:19;;;;;;;14.68;7.72;;;3.70;89.70;;;;;;9167226;19;20015;-71
2023/11/22 05:18:25;;;;;;;14.35;7.35;;;3.70;89.90;;;;;;9169919;19;20082;-71
2023/11/22 05:21:32;;;;;;;12.98;6.95;;;3.60;89.80;;;;;;9168331;19;20014;-72
2023/11/22 05:24:40;;;;;;;16.02;7.78;;;3.60;89.80;;;;;;9168335;19;20121;-71
2023/11/22 05:27:49;;;;;;;13.63;7.03;;;3.60;89.90;;;;;;9169242;19;20014;-70
2023/11/22 05:30:57;;;;;;;13.52;7.50;;;3.60;90.00;;;;;;9166346;19;20021;-69
2023/11/22 05:34:05;;;;;;;20.67;8.20;;;3.50;90.00;;;;;;9167925;19;20367;-73
2023/11/22 05:37:10;;;;;;;15.52;7.15;;;3.50;90.10;;;;;;9168653;19;20262;-70
2023/11/22 05:40:18;;;;;;;13.80;6.70;;;3.50;90.00;;;;;;9169502;19;20372;-72
2023/11/22 05:43:26;;;;;;;17.25;7.35;;;3.50;90.10;;;;;;9161474;19;20437;-73
2023/11/22 05:46:38;;;;;;;17.42;7.20;;;3.50;90.00;;;;;;9169547;19;20022;-71
2023/11/22 05:49:43;;;;;;;16.63;7.80;;;3.40;90.10;;;;;;9167979;19;20022;-71
2023/11/22 05:52:51;;;;;;;21.33;8.60;;;3.40;90.60;;;;;;9168480;19;20021;-72
2023/11/22 05:55:56;;;;;;;17.83;7.97;;;3.40;90.40;;;;;;9166643;19;20090;-72
2023/11/22 05:59:04;;;;;;;15.77;8.25;;;3.40;90.70;;;;;;9167163;19;20107;-73
2023/11/22 06:02:12;;;;;;;16.17;8.15;;;3.30;90.60;;;;;;9165665;19;20623;-71
2023/11/22 06:05:20;;;;;;;19.17;8.30;;;3.40;90.60;;;;;;9165848;19;20014;-73
2023/11/22 06:08:25;;;;;;;14.57;7.20;;;3.40;90.70;;;;;;9165249;19;20475;-73
2023/11/22 06:11:32;;;;;;;16.30;8.32;;;3.40;90.90;;;;;;9159901;19;20274;-71
2023/11/22 06:14:38;;;;;;;16.10;7.72;;;3.40;91.00;;;;;;9165400;19;20559;-73
2023/11/22 06:17:48;;;;;;;15.73;8.25;;;3.30;91.40;;;;;;9166412;19;20026;-71
2023/11/22 06:20:53;;;;;;;19.63;8.98;;;3.40;93.30;;;;;;9164722;19;20575;-73
2023/11/22 06:24:03;;;;;;;21.23;9.10;;;3.40;91.60;;;;;;9164866;19;20018;-71
2023/11/22 06:27:08;;;;;;;17.52;8.85;;;3.40;91.70;;;;;;9162459;19;20023;-70
2023/11/22 06:30:16;;;;;;;20.15;8.70;;;3.40;91.70;;;;;;9166174;19;20022;-72
2023/11/22 06:33:24;;;;;;;18.20;9.13;;;3.40;91.70;;;;;;9167825;19;20022;-70
2023/11/22 06:36:32;;;;;;;24.20;10.43;;;3.40;93.40;;;;;;9163804;19;20010;-70
2023/11/22 06:39:37;;;;;;;25.95;9.45;;;3.40;91.60;;;;;;9165730;19;20015;-70
2023/11/22 06:42:45;;;;;;;24.80;10.55;;;3.40;91.80;;;;;;9161685;19;20014;-70
2023/11/22 06:45:51;;;;;;;23.02;10.48;;;3.40;91.50;;;;;;9163236;19;20082;-71
2023/11/22 06:49:01;;;;;;;22.38;10.30;;;3.40;91.60;;;;;;9165128;19;20023;-71
2023/11/22 06:52:08;;;;;;;21.75;10.00;;;3.40;91.70;;;;;;9164348;19;20476;-69
2023/11/22 06:55:17;;;;;;;17.88;9.07;;;3.40;91.90;;;;;;9164941;19;20018;-69
2023/11/22 06:58:22;;;;;;;25.13;9.32;;;3.40;92.20;;;;;;9165495;19;20023;-70
2023/11/22 07:01:30;;;;;;;19.77;9.10;;;3.40;92.70;;;;;;9164419;19;20018;-70
2023/11/22 07:04:39;;;;;;;23.10;9.43;;;3.40;93.20;;;;;;9162912;19;20010;-70
2023/11/22 07:07:48;;;;;;;20.73;9.80;;;3.40;93.10;;;;;;9163624;19;20014;-70
2023/11/22 07:10:53;;;;;;;18.23;8.70;;;3.40;94.30;;;;;;9162840;19;20049;-71
2023/11/22 07:14:00;;;;;;;19.17;8.88;;;3.50;92.60;;;;;;9161688;19;20018;-70
2023/11/22 07:17:06;;;;;;;15.50;7.65;;;3.40;92.70;;;;;;9165930;19;20081;-69
2023/11/22 07:20:18;;;;;;;17.13;8.88;;;3.40;92.70;;;;;;9165864;19;20022;-70
2023/11/22 07:23:28;;;;;;;15.48;7.88;;;3.40;93.00;;;;;;9166123;19;20022;-70
2023/11/22 07:26:37;;;;;;;14.97;7.53;;;3.40;93.20;;;;;;9163891;19;20342;-69
2023/11/22 07:29:43;;;;;;;17.55;8.70;;;3.50;93.20;;;;;;9165551;19;20022;-71
2023/11/22 07:32:51;;;;;;;15.32;8.30;;;3.40;93.40;;;;;;9162613;19;20015;-69
2023/11/22 07:36:00;;;;;;;14.80;7.60;;;3.40;93.80;;;;;;9165273;19;20018;-69
2023/11/22 07:39:07;;;;;;;13.60;7.55;;;3.40;92.30;;;;;;9165704;19;20018;-69
2023/11/22 07:42:12;;;;;;;13.27;7.30;;;3.40;92.40;;;;;;9164824;19;20029;-69
2023/11/22 07:45:20;;;;;;;13.80;7.32;;;3.30;92.70;;;;;;9159646;19;20022;-69
2023/11/22 07:48:26;;;;;;;17.58;8.73;;;3.30;92.90;;;;;;9162739;19;20016;-69
2023/11/22 07:51:37;;;;;;;12.80;7.30;;;3.30;93.30;;;;;;9160853;19;20478;-74
2023/11/22 07:54:42;;;;;;;12.52;7.25;;;3.40;93.30;;;;;;9164103;19;20058;-71
2023/11/22 07:57:51;;;;;;;14.38;6.82;;;3.40;94.10;;;;;;9163569;19;20014;-72
2023/11/22 08:00:57;;;;;;;14.55;7.22;;;3.40;93.90;;;;;;9164219;19;20090;-70
2023/11/22 08:04:05;;;;;;;13.50;7.28;;;3.40;94.80;;;;;;9164450;19;20021;-72
2023/11/22 08:07:14;;;;;;;16.20;8.70;;;3.50;96.00;;;;;;9163952;19;20387;-71
2023/11/22 08:10:25;;;;;;;14.18;7.63;;;3.40;93.10;;;;;;9163293;19;20279;-71
2023/11/22 08:13:30;;;;;;;13.65;7.90;;;3.40;93.80;;;;;;9161333;19;20014;-72
2023/11/22 08:16:42;;;;;;;14.32;8.05;;;3.50;95.40;;;;;;9161000;19;20014;-72
2023/11/22 08:19:49;;;;;;;14.45;8.30;;;3.40;96.00;;;;;;9162510;19;20026;-72
2023/11/22 08:22:59;;;;;;;14.98;8.55;;;3.40;92.40;;;;;;9158577;19;20021;-70
2023/11/22 08:26:05;;;;;;;13.93;7.40;;;3.40;92.40;;;;;;9155655;19;20086;-70
2023/11/22 08:29:14;;;;;;;13.43;7.88;;;3.40;92.30;;;;;;9163110;19;20228;-70
2023/11/22 08:32:23;;;;;;;15.13;9.43;;;3.40;92.30;;;;;;9161644;19;20048;-71
2023/11/22 08:35:34;;;;;;;13.98;8.15;;;3.50;92.20;;;;;;9160706;19;20022;-71
2023/11/22 08:38:44;;;;;;;11.90;7.25;;;3.50;92.30;;;;;;9162343;19;20033;-70
2023/11/22 08:41:51;;;;;;;13.40;6.78;;;3.60;92.30;;;;;;9162258;19;20026;-70
2023/11/22 08:44:57;;;;;;;12.00;6.68;;;3.50;92.20;;;;;;9155683;19;20018;-70
2023/11/22 08:48:04;;;;;;;13.13;6.55;;;3.60;92.30;;;;;;9160074;19;20019;-70
2023/11/22 08:51:10;;;;;;;11.20;6.70;;;3.60;92.40;;;;;;9161478;19;20018;-69
2023/11/22 08:54:20;;;;;;;9.55;6.28;;;3.60;92.70;;;;;;9162208;19;20014;-70
2023/11/22 08:57:25;;;;;;;13.07;7.75;;;3.70;93.00;;;;;;9161569;19;20019;-71
2023/11/22 09:00:33;;;;;;;11.38;7.13;;;3.70;95.30;;;;;;9161720;19;20022;-70
2023/11/22 09:03:39;;;;;;;13.27;7.13;;;3.70;92.20;;;;;;9161430;19;20031;-71
2023/11/22 09:06:47;;;;;;;9.93;6.88;;;3.70;92.40;;;;;;9160871;19;20014;-71
2023/11/22 09:09:55;;;;;;;12.48;7.20;;;3.80;92.80;;;;;;9160497;19;20108;-71
2023/11/22 09:13:02;;;;;;;10.85;6.65;;;4.00;94.30;;;;;;9159639;19;20018;-71
2023/11/22 09:16:08;;;;;;;11.98;6.80;;;3.80;92.50;;;;;;9161313;19;20018;-72
2023/11/22 09:19:16;;;;;;;19.92;7.30;;;3.80;92.60;;;;;;9160336;19;20018;-72
2023/11/22 09:22:21;;;;;;;14.05;7.63;;;3.80;92.90;;;;;;9161008;19;20937;-72
2023/11/22 09:25:33;;;;;;;11.93;7.32;;;3.90;93.70;;;;;;9159213;19;20034;-71
2023/11/22 09:28:38;;;;;;;15.68;8.25;;;3.90;93.40;;;;;;9157839;19;20022;-71
2023/11/22 09:31:46;;;;;;;12.90;7.60;;;3.70;89.70;;;;;;9159820;19;20023;-70
2023/11/22 09:34:57;;;;;;;15.98;7.88;;;3.80;90.10;;;;;;9160951;19;20490;-73
2023/11/22 09:38:06;;;;;;;14.40;7.87;;;3.80;90.20;;;;;;9163548;19;20018;-72
2023/11/22 09:41:16;;;;;;;12.40;7.10;;;3.90;90.20;;;;;;9168051;19;20008;-73
2023/11/22 09:44:23;;;;;;;12.60;7.72;;;3.90;90.40;;;;;;9161521;19;20022;-72
2023/11/22 09:47:30;;;;;;;12.20;7.45;;;4.00;90.60;;;;;;9170031;19;20014;-72
2023/11/22 09:50:43;;;;;;;14.15;8.48;;;4.00;90.70;;;;;;9169652;19;20025;-72
2023/11/22 09:53:56;;;;;;;13.38;8.20;;;4.20;91.10;;;;;;9167040;19;20018;-70
2023/11/22 09:57:09;;;;;;;14.45;8.65;;;4.10;90.70;;;;;;9168806;19;20376;-72
2023/11/22 10:00:18;;;;;;;17.85;8.90;;;4.10;90.80;;;;;;9169615;19;20044;-71
2023/11/22 10:03:28;;;;;;;16.48;9.05;;;4.10;90.70;;;;;;9166550;19;20029;-72
2023/11/22 10:06:35;;;;;;;16.67;8.52;;;4.20;90.80;;;;;;9168145;19;20026;-71
2023/11/22 10:09:43;;;;;;;18.55;9.18;;;4.30;90.70;;;;;;9169645;19;20029;-73
2023/11/22 10:12:52;;;;;;;17.52;9.32;;;4.30;90.90;;;;;;9166642;19;20107;-70
2023/11/22 10:16:12;;;;;;;16.75;9.10;;;4.30;90.80;;;;;;9165507;19;20018;-72
2023/11/22 10:19:20;;;;;;;16.25;8.35;;;4.40;90.70;;;;;;9169184;19;20490;-70
2023/11/22 10:22:28;;;;;;;17.27;9.77;;;4.40;90.90;;;;;;9165759;19;20033;-70
2023/11/22 10:25:33;;;;;;;23.98;10.85;;;4.40;90.80;;;;;;9166746;19;20014;-72
2023/11/22 10:28:44;;;;;;;20.67;10.45;;;4.50;90.70;;;;;;9167934;19;21058;-71
2023/11/22 10:31:50;;;;;;;19.48;11.57;;;4.60;91.40;;;;;;9167640;19;20025;-72
2023/11/22 10:34:58;;;;;;;21.33;9.27;;;5.30;90.70;;;;;;9168598;19;20617;-71
2023/11/22 10:38:06;;;;;;;17.92;9.68;;;4.60;90.20;;;;;;9166492;19;20338;-71
2023/11/22 10:41:13;;;;;;;21.73;11.18;;;4.70;90.30;;;;;;9167319;19;20357;-72
2023/11/22 10:44:22;;;;;;;22.40;11.07;;;4.70;90.30;;;;;;9161566;19;20011;-72
2023/11/22 10:47:32;;;;;;;23.65;10.07;;;4.70;90.20;;;;;;9165429;19;20018;-72
2023/11/22 10:50:37;;;;;;;18.45;9.25;;;4.80;90.20;;;;;;9167949;19;20813;-70
2023/11/22 10:53:51;;;;;;;18.83;9.02;;;4.90;90.30;;;;;;9163467;19;20026;-71
2023/11/22 10:56:59;;;;;;;21.25;9.75;;;4.90;90.20;;;;;;9167268;19;20591;-70
2023/11/22 11:00:12;;;;;;;19.83;9.02;;;5.00;90.30;;;;;;9165518;19;20774;-70
2023/11/22 11:03:21;;;;;;;17.15;8.00;;;5.10;90.30;;;;;;9165150;19;20023;-70
2023/11/22 11:06:34;;;;;;;16.52;9.02;;;5.10;90.30;;;;;;9166492;19;20060;-70
2023/11/22 11:09:40;;;;;;;20.20;8.75;;;5.20;90.30;;;;;;9166064;19;20019;-71
2023/11/22 11:12:48;;;;;;;18.38;8.60;;;5.30;90.30;;;;;;9163945;19;20015;-71
2023/11/22 11:15:56;;;;;;;15.02;7.45;;;5.30;90.30;;;;;;9166034;19;20360;-71
2023/11/22 11:19:05;;;;;;;15.60;7.72;;;5.40;90.30;;;;;;9162647;19;20014;-71
2023/11/22 11:22:13;;;;;;;12.40;5.90;;;5.40;90.30;;;;;;9162759;19;20495;-70
2023/11/22 11:25:21;;;;;;;13.50;6.90;;;5.50;90.30;;;;;;9165453;19;20019;-75
2023/11/22 11:28:28;;;;;;;9.80;5.43;;;5.60;90.30;;;;;;9165615;19;20022;-69
2023/11/22 11:31:44;;;;;;;9.65;5.55;;;5.60;90.20;;;;;;9165138;19;20014;-69
2023/11/22 11:34:52;;;;;;;12.80;6.07;;;5.70;90.20;;;;;;9163609;19;20042;-69
2023/11/22 11:38:03;;;;;;;11.65;4.90;;;5.70;90.20;;;;;;9165281;19;20022;-68
2023/11/22 11:41:11;;;;;;;11.57;4.68;;;5.70;90.10;;;;;;9164056;19;20022;-68
2023/11/22 11:44:19;;;;;;;9.60;5.05;;;5.70;90.00;;;;;;9160521;19;20018;-68
2023/11/22 11:47:28;;;;;;;12.20;4.35;;;5.70;90.00;;;;;;9163831;19;20037;-68
2023/11/22 11:50:36;;;;;;;8.48;5.05;;;5.70;89.90;;;;;;9165105;19;20962;-68
2023/11/22 11:53:41;;;;;;;9.38;4.90;;;5.80;90.00;;;;;;9162806;19;20048;-68
2023/11/22 11:56:54;;;;;;;11.25;4.47;;;5.70;89.90;;;;;;9164775;19;20559;-69
2023/11/22 12:00:02;;;;;;;14.82;4.95;;;5.80;89.90;;;;;;9160186;19;20026;-68
2023/11/22 12:03:21;;;;;;;11.27;4.30;;;5.80;89.80;;;;;;9165489;19;20014;-67
2023/11/22 12:06:27;;;;;;;10.15;5.43;;;5.80;89.80;;;;;;9163633;19;20030;-71
2023/11/22 12:09:35;;;;;;;8.02;4.60;;;5.80;89.80;;;;;;9162927;19;20010;-70
2023/11/22 12:12:42;;;;;;;9.07;4.65;;;5.80;89.70;;;;;;9163911;19;20464;-68
2023/11/22 12:15:49;;;;;;;8.15;4.53;;;5.80;89.70;;;;;;9163521;19;20022;-68
2023/11/22 12:18:58;;;;;;;9.02;4.55;;;5.80;89.60;;;;;;9161312;19;20387;-69
2023/11/22 12:22:08;;;;;;;6.95;4.05;;;5.80;89.50;;;;;;9162470;19;20038;-68
2023/11/22 12:25:14;;;;;;;7.93;4.47;;;5.90;89.50;;;;;;9162264;19;20266;-69
2023/11/22 12:28:24;;;;;;;10.20;5.00;;;5.80;89.40;;;;;;9163445;19;20038;-70
2023/11/22 12:31:34;;;;;;;7.78;4.50;;;5.80;89.50;;;;;;9164476;19;20068;-68
2023/11/22 12:34:48;;;;;;;8.65;5.28;;;5.90;89.50;;;;;;9160923;19;20018;-68
2023/11/22 12:37:56;;;;;;;8.45;4.88;;;5.90;89.40;;;;;;9161116;19;20082;-67
2023/11/22 12:41:06;;;;;;;8.55;4.68;;;5.90;89.40;;;;;;9162276;19;20026;-68
2023/11/22 12:44:11;;;;;;;8.48;4.53;;;6.00;89.50;;;;;;9158414;19;20824;-67
2023/11/22 12:47:34;;;;;;;8.88;4.85;;;6.00;89.50;;;;;;9160212;19;20025;-67
2023/11/22 12:50:43;;;;;;;5.88;3.75;;;6.00;89.40;;;;;;9162512;19;20015;-67
2023/11/22 12:53:51;;;;;;;9.35;4.13;;;6.10;89.40;;;;;;9160815;19;20015;-67
2023/11/22 12:56:58;;;;;;;7.88;4.32;;;6.10;89.40;;;;;;9158165;19;20043;-67
2023/11/22 13:00:08;;;;;;;9.35;4.40;;;6.10;89.20;;;;;;9161032;19;20022;-67
2023/11/22 13:03:14;;;;;;;7.18;3.80;;;6.20;89.30;;;;;;9159139;19;20058;-67
2023/11/22 13:06:26;;;;;;;6.97;4.18;;;6.20;89.20;;;;;;9160876;19;20031;-69
2023/11/22 13:09:33;;;;;;;8.40;4.70;;;6.30;89.20;;;;;;9160248;19;20024;-67
2023/11/22 13:12:40;;;;;;;10.43;4.18;;;6.30;89.10;;;;;;9167002;19;20025;-68
2023/11/22 13:15:46;;;;;;;8.90;4.50;;;6.30;89.00;;;;;;9168216;19;20099;-68
2023/11/22 13:18:53;;;;;;;7.10;4.50;;;6.40;89.00;;;;;;9169291;19;20029;-67
2023/11/22 13:22:01;;;;;;;6.15;4.00;;;6.40;89.00;;;;;;9170590;19;20035;-68
2023/11/22 13:25:10;;;;;;;6.45;3.88;;;6.40;88.90;;;;;;9168231;19;20021;-69
2023/11/22 13:28:15;;;;;;;8.25;4.25;;;6.40;88.80;;;;;;9169451;19;20015;-68
2023/11/22 13:31:24;;;;;;;8.15;3.92;;;6.50;88.80;;;;;;9169749;19;20015;-68
2023/11/22 13:34:30;;;;;;;6.85;3.90;;;6.50;88.80;;;;;;9168169;19;20131;-68
2023/11/22 13:37:41;;;;;;;6.18;3.67;;;6.50;88.70;;;;;;9170004;19;20022;-68
2023/11/22 13:40:47;;;;;;;6.05;4.05;;;6.60;88.70;;;;;;9169142;19;20765;-69
2023/11/22 13:43:55;;;;;;;10.60;4.20;;;6.60;88.70;;;;;;9165645;19;20017;-68
2023/11/22 13:47:00;;;;;;;11.77;5.80;;;6.60;88.60;;;;;;9169132;19;20014;-68
2023/11/22 13:50:09;;;;;;;6.20;4.10;;;6.60;88.60;;;;;;9169415;19;20017;-69
2023/11/22 13:53:21;;;;;;;10.80;4.53;;;6.60;88.60;;;;;;9166208;19;20052;-69
2023/11/22 13:56:28;;;;;;;6.72;4.03;;;6.50;88.40;;;;;;9166102;19;20030;-69
2023/11/22 13:59:34;;;;;;;5.75;3.63;;;6.60;88.30;;;;;;9167953;19;20015;-68
2023/11/22 14:02:42;;;;;;;8.52;4.65;;;6.60;88.30;;;;;;9168476;19;20681;-68
2023/11/22 14:05:48;;;;;;;7.93;4.60;;;6.60;88.30;;;;;;9168993;19;20074;-71
2023/11/22 14:08:57;;;;;;;7.63;3.97;;;6.60;88.30;;;;;;9168866;19;20389;-67
2023/11/22 14:12:03;;;;;;;9.27;4.35;;;6.60;88.20;;;;;;9166981;19;20044;-67
2023/11/22 14:15:13;;;;;;;6.95;4.32;;;6.60;88.00;;;;;;9166647;19;20620;-68
2023/11/22 14:18:18;;;;;;;6.07;3.72;;;6.60;88.00;;;;;;9169260;19;20562;-67
2023/11/22 14:21:26;;;;;;;8.52;3.95;;;6.60;88.00;;;;;;9168571;19;20018;-67
2023/11/22 14:24:36;;;;;;;7.13;3.95;;;6.60;88.00;;;;;;9166139;19;20014;-68
2023/11/22 14:27:45;;;;;;;6.28;3.88;;;6.60;87.90;;;;;;9168491;19;20675;-69
2023/11/22 14:30:54;;;;;;;11.35;4.82;;;6.60;87.90;;;;;;9168752;19;20082;-70
2023/11/22 14:34:05;;;;;;;9.85;4.57;;;6.60;87.80;;;;;;9168373;19;20536;-68
2023/11/22 14:37:10;;;;;;;7.47;4.47;;;6.50;87.90;;;;;;9167296;19;20019;-67
2023/11/22 14:40:20;;;;;;;9.38;4.68;;;6.60;87.90;;;;;;9167352;19;20025;-69
2023/11/22 14:43:26;;;;;;;9.30;5.05;;;6.60;87.90;;;;;;9162617;19;20022;-66
2023/11/22 14:46:35;;;;;;;8.75;4.15;;;6.60;87.90;;;;;;9165144;19;20353;-67
2023/11/22 14:49:40;;;;;;;7.53;4.70;;;6.50;87.90;;;;;;9162637;19;20010;-68
2023/11/22 14:52:54;;;;;;;8.43;5.17;;;6.60;87.80;;;;;;9166432;19;20018;-70
2023/11/22 14:56:03;;;;;;;12.32;5.93;;;6.50;87.80;;;;;;9165414;19;20506;-70
2023/11/22 14:59:10;;;;;;;9.32;5.05;;;6.50;87.70;;;;;;9166569;19;20019;-69
2023/11/22 15:02:16;;;;;;;7.47;4.47;;;6.50;87.70;;;;;;9166565;19;20022;-71
2023/11/22 15:05:23;;;;;;;11.93;5.15;;;6.50;87.70;;;;;;9167853;19;20010;-69
2023/11/22 15:08:29;;;;;;;9.88;4.53;;;6.50;87.70;;;;;;9166068;19;20022;-70
2023/11/22 15:11:40;;;;;;;17.60;5.50;;;6.50;87.60;;;;;;9166746;19;20026;-69
2023/11/22 15:14:46;;;;;;;9.52;4.70;;;6.50;87.60;;;;;;9166064;19;20015;-70
2023/11/22 15:17:53;;;;;;;11.30;5.68;;;6.50;87.60;;;;;;9166109;19;20014;-69
2023/11/22 15:21:00;;;;;;;11.70;5.45;;;6.50;87.60;;;;;;9163530;19;20836;-69
2023/11/22 15:24:09;;;;;;;9.48;5.30;;;6.50;87.60;;;;;;9166297;19;20018;-70
2023/11/22 15:27:16;;;;;;;9.77;5.25;;;6.50;87.60;;;;;;9165719;19;20773;-70
2023/11/22 15:30:24;;;;;;;13.82;5.93;;;6.50;87.60;;;;;;9165047;19;20302;-69
2023/11/22 15:33:29;;;;;;;17.10;5.57;;;6.50;87.60;;;;;;9165411;19;20010;-70
2023/11/22 15:36:37;;;;;;;11.75;5.22;;;6.50;87.60;;;;;;9160518;19;20605;-69
2023/11/22 15:39:42;;;;;;;13.05;6.00;;;6.40;87.50;;;;;;9164532;19;20434;-69
2023/11/22 15:42:52;;;;;;;10.27;5.55;;;6.50;87.60;;;;;;9160420;19;20010;-69
2023/11/22 15:45:58;;;;;;;10.93;5.78;;;6.50;87.60;;;;;;9162985;19;20018;-70
2023/11/22 15:49:06;;;;;;;14.98;6.43;;;6.50;87.60;;;;;;9163738;19;20023;-71
2023/11/22 15:52:12;;;;;;;12.93;5.95;;;6.40;87.60;;;;;;9164505;19;20014;-70
2023/11/22 15:55:19;;;;;;;13.45;5.97;;;6.40;87.50;;;;;;9164557;19;20728;-69
2023/11/22 15:58:27;;;;;;;13.45;5.88;;;6.40;87.50;;;;;;9165064;19;20022;-70
2023/11/22 16:01:35;;;;;;;11.25;6.03;;;6.40;87.50;;;;;;9164107;19;20022;-67
2023/11/22 16:04:40;;;;;;;14.88;6.38;;;6.40;87.60;;;;;;9164747;19;20025;-67
2023/11/22 16:07:48;;;;;;;13.88;6.55;;;6.40;87.60;;;;;;9165368;19;20022;-67
2023/11/22 16:10:53;;;;;;;14.10;6.45;;;6.40;87.60;;;;;;9163909;19;20384;-68
2023/11/22 16:14:03;;;;;;;14.40;7.28;;;6.40;87.70;;;;;;9164102;19;20022;-67
2023/11/22 16:17:10;;;;;;;14.55;7.25;;;6.40;87.60;;;;;;9161932;19;20014;-68
2023/11/22 16:20:21;;;;;;;14.60;7.18;;;6.40;87.60;;;;;;9162013;19;20022;-68